sensor_id;sensor_type;location;lat;lon;timestamp;pressure;altitude;pressure_sealevel;temperature;humidity
47366;BME280;33105;47.964;7.982;2023-02-17T00:00:44;97668.56;;;9.86;50.13
47366;BME280;33105;47.964;7.982;2023-02-17T00:03:46;97660.03;;;9.83;51.81
47366;BME280;33105;47.964;7.982;2023-02-17T00:06:48;97667.97;;;9.96;50.88
47366;BME280;33105;47.964;7.982;2023-02-17T00:09:49;97670.69;;;9.96;51.31
47366;BME280;33105;47.964;7.982;2023-02-17T00:12:50;97669.28;;;9.82;51.60
47366;BME280;33105;47.964;7.982;2023-02-17T00:15:52;97675.00;;;10.04;50.87
47366;BME280;33105;47.964;7.982;2023-02-17T00:18:55;97675.31;;;9.96;51.43
47366;BME280;33105;47.964;7.982;2023-02-17T00:22:00;97674.22;;;9.73;53.02
47366;BME280;33105;47.964;7.982;2023-02-17T00:25:01;97679.34;;;9.81;55.49
47366;BME280;33105;47.964;7.982;2023-02-17T00:28:02;97672.19;;;9.57;57.09
47366;BME280;33105;47.964;7.982;2023-02-17T00:31:06;97669.38;;;9.34;58.32
47366;BME280;33105;47.964;7.982;2023-02-17T00:34:07;97674.00;;;9.33;60.04
47366;BME280;33105;47.964;7.982;2023-02-17T00:37:08;97674.63;;;9.17;59.04
47366;BME280;33105;47.964;7.982;2023-02-17T00:40:11;97676.34;;;9.60;55.99
47366;BME280;33105;47.964;7.982;2023-02-17T00:43:12;97680.47;;;9.50;57.22
47366;BME280;33105;47.964;7.982;2023-02-17T00:46:16;97678.88;;;9.43;57.25
47366;BME280;33105;47.964;7.982;2023-02-17T00:49:22;97680.50;;;9.62;57.39
47366;BME280;33105;47.964;7.982;2023-02-17T00:52:23;97681.19;;;9.58;57.87
47366;BME280;33105;47.964;7.982;2023-02-17T00:55:24;97671.41;;;9.38;58.33
47366;BME280;33105;47.964;7.982;2023-02-17T00:58:26;97677.28;;;9.65;58.31
47366;BME280;33105;47.964;7.982;2023-02-17T01:01:27;97673.97;;;9.63;58.42
47366;BME280;33105;47.964;7.982;2023-02-17T01:04:29;97662.84;;;9.76;59.44
47366;BME280;33105;47.964;7.982;2023-02-17T01:07:31;97670.69;;;9.84;58.99
47366;BME280;33105;47.964;7.982;2023-02-17T01:10:35;97675.56;;;9.94;59.40
47366;BME280;33105;47.964;7.982;2023-02-17T01:13:37;97665.34;;;9.78;60.54
47366;BME280;33105;47.964;7.982;2023-02-17T01:16:39;97672.22;;;9.92;60.34
47366;BME280;33105;47.964;7.982;2023-02-17T01:19:42;97670.09;;;9.82;60.19
47366;BME280;33105;47.964;7.982;2023-02-17T01:22:44;97671.88;;;9.77;61.34
47366;BME280;33105;47.964;7.982;2023-02-17T01:25:46;97671.53;;;9.97;59.39
47366;BME280;33105;47.964;7.982;2023-02-17T01:28:50;97673.66;;;9.95;60.35
47366;BME280;33105;47.964;7.982;2023-02-17T01:31:52;97675.69;;;9.87;59.73
47366;BME280;33105;47.964;7.982;2023-02-17T01:34:53;97661.56;;;9.79;60.17
47366;BME280;33105;47.964;7.982;2023-02-17T01:37:54;97658.00;;;9.90;59.77
47366;BME280;33105;47.964;7.982;2023-02-17T01:40:58;97659.81;;;10.08;59.87
47366;BME280;33105;47.964;7.982;2023-02-17T01:44:15;97651.81;;;9.95;60.81
47366;BME280;33105;47.964;7.982;2023-02-17T01:47:17;97651.84;;;10.06;61.65
47366;BME280;33105;47.964;7.982;2023-02-17T01:50:20;97653.69;;;9.71;62.73
47366;BME280;33105;47.964;7.982;2023-02-17T01:56:56;97656.97;;;9.19;67.68
47366;BME280;33105;47.964;7.982;2023-02-17T01:59:59;97667.63;;;9.39;67.63
47366;BME280;33105;47.964;7.982;2023-02-17T02:03:01;97666.81;;;9.20;68.53
47366;BME280;33105;47.964;7.982;2023-02-17T02:06:11;97669.94;;;9.24;68.20
47366;BME280;33105;47.964;7.982;2023-02-17T02:12:17;97670.22;;;9.34;66.73
47366;BME280;33105;47.964;7.982;2023-02-17T02:15:22;97660.84;;;9.42;67.03
47366;BME280;33105;47.964;7.982;2023-02-17T02:22:09;97646.00;;;9.26;67.36
47366;BME280;33105;47.964;7.982;2023-02-17T02:32:30;97636.28;;;9.30;65.86
47366;BME280;33105;47.964;7.982;2023-02-17T02:35:56;97626.59;;;9.34;65.86
47366;BME280;33105;47.964;7.982;2023-02-17T02:42:06;97632.66;;;9.48;64.56
47366;BME280;33105;47.964;7.982;2023-02-17T02:45:10;97635.88;;;9.57;63.95
47366;BME280;33105;47.964;7.982;2023-02-17T02:48:11;97629.97;;;9.60;64.71
47366;BME280;33105;47.964;7.982;2023-02-17T03:07:26;97617.63;;;9.57;63.40
47366;BME280;33105;47.964;7.982;2023-02-17T03:10:29;97627.84;;;9.62;63.47
47366;BME280;33105;47.964;7.982;2023-02-17T03:13:32;97627.00;;;9.61;63.75
47366;BME280;33105;47.964;7.982;2023-02-17T03:16:35;97619.53;;;9.57;64.17
47366;BME280;33105;47.964;7.982;2023-02-17T03:19:37;97614.44;;;9.72;62.53
47366;BME280;33105;47.964;7.982;2023-02-17T03:22:40;97619.75;;;9.67;62.62
47366;BME280;33105;47.964;7.982;2023-02-17T03:25:43;97603.97;;;9.69;62.51
47366;BME280;33105;47.964;7.982;2023-02-17T03:28:45;97606.38;;;9.77;62.05
47366;BME280;33105;47.964;7.982;2023-02-17T03:31:47;97614.09;;;9.80;62.03
47366;BME280;33105;47.964;7.982;2023-02-17T03:34:48;97609.22;;;9.82;61.44
47366;BME280;33105;47.964;7.982;2023-02-17T03:37:49;97616.72;;;9.86;60.32
47366;BME280;33105;47.964;7.982;2023-02-17T03:40:50;97616.22;;;9.78;60.39
47366;BME280;33105;47.964;7.982;2023-02-17T03:43:53;97612.53;;;9.72;59.95
47366;BME280;33105;47.964;7.982;2023-02-17T03:46:54;97608.75;;;9.73;60.09
47366;BME280;33105;47.964;7.982;2023-02-17T03:49:55;97609.56;;;9.74;60.96
47366;BME280;33105;47.964;7.982;2023-02-17T03:52:57;97614.19;;;9.62;60.88
47366;BME280;33105;47.964;7.982;2023-02-17T03:55:58;97612.63;;;9.66;60.32
47366;BME280;33105;47.964;7.982;2023-02-17T03:58:59;97613.22;;;9.56;60.85
47366;BME280;33105;47.964;7.982;2023-02-17T04:02:00;97618.63;;;9.86;60.06
47366;BME280;33105;47.964;7.982;2023-02-17T04:05:02;97621.09;;;9.76;59.00
47366;BME280;33105;47.964;7.982;2023-02-17T04:08:03;97610.28;;;9.81;59.47
47366;BME280;33105;47.964;7.982;2023-02-17T04:11:06;97620.97;;;9.82;58.08
47366;BME280;33105;47.964;7.982;2023-02-17T04:14:08;97599.97;;;9.95;57.05
47366;BME280;33105;47.964;7.982;2023-02-17T04:17:09;97621.56;;;9.96;57.08
47366;BME280;33105;47.964;7.982;2023-02-17T04:20:10;97613.25;;;9.91;56.43
47366;BME280;33105;47.964;7.982;2023-02-17T04:23:12;97610.66;;;9.96;56.64
47366;BME280;33105;47.964;7.982;2023-02-17T04:26:14;97599.97;;;9.95;57.81
47366;BME280;33105;47.964;7.982;2023-02-17T04:29:15;97600.81;;;9.95;56.46
47366;BME280;33105;47.964;7.982;2023-02-17T04:32:16;97605.06;;;9.68;56.95
47366;BME280;33105;47.964;7.982;2023-02-17T04:35:18;97600.44;;;9.92;56.68
47366;BME280;33105;47.964;7.982;2023-02-17T04:38:19;97589.03;;;9.71;57.07
47366;BME280;33105;47.964;7.982;2023-02-17T04:41:20;97611.84;;;9.77;58.23
47366;BME280;33105;47.964;7.982;2023-02-17T04:44:21;97604.13;;;9.74;58.43
47366;BME280;33105;47.964;7.982;2023-02-17T04:47:22;97602.81;;;9.65;58.83
47366;BME280;33105;47.964;7.982;2023-02-17T04:50:23;97618.00;;;9.61;58.78
47366;BME280;33105;47.964;7.982;2023-02-17T04:53:25;97604.81;;;9.58;58.54
47366;BME280;33105;47.964;7.982;2023-02-17T04:56:26;97611.19;;;9.51;59.08
47366;BME280;33105;47.964;7.982;2023-02-17T04:59:27;97609.66;;;9.67;58.94
47366;BME280;33105;47.964;7.982;2023-02-17T05:02:28;97619.75;;;9.67;59.30
47366;BME280;33105;47.964;7.982;2023-02-17T05:05:30;97617.41;;;9.59;60.00
47366;BME280;33105;47.964;7.982;2023-02-17T05:08:31;97618.66;;;9.44;59.11
47366;BME280;33105;47.964;7.982;2023-02-17T05:11:33;97625.44;;;9.65;59.08
47366;BME280;33105;47.964;7.982;2023-02-17T05:14:34;97626.78;;;9.63;59.53
47366;BME280;33105;47.964;7.982;2023-02-17T05:17:35;97628.69;;;9.74;59.02
47366;BME280;33105;47.964;7.982;2023-02-17T05:20:37;97635.91;;;9.68;58.60
47366;BME280;33105;47.964;7.982;2023-02-17T05:23:38;97624.97;;;9.57;57.45
47366;BME280;33105;47.964;7.982;2023-02-17T05:26:41;97618.94;;;9.66;58.40
47366;BME280;33105;47.964;7.982;2023-02-17T05:29:42;97624.56;;;9.41;59.17
47366;BME280;33105;47.964;7.982;2023-02-17T05:32:43;97624.50;;;9.60;58.68
47366;BME280;33105;47.964;7.982;2023-02-17T05:35:44;97612.41;;;9.67;57.62
47366;BME280;33105;47.964;7.982;2023-02-17T05:38:45;97621.19;;;9.58;58.86
47366;BME280;33105;47.964;7.982;2023-02-17T05:41:49;97616.94;;;9.62;58.97
47366;BME280;33105;47.964;7.982;2023-02-17T05:44:51;97623.91;;;9.69;59.15
47366;BME280;33105;47.964;7.982;2023-02-17T05:47:52;97632.47;;;9.61;58.91
47366;BME280;33105;47.964;7.982;2023-02-17T05:50:53;97621.31;;;9.63;58.90
47366;BME280;33105;47.964;7.982;2023-02-17T05:53:54;97630.47;;;9.80;58.94
47366;BME280;33105;47.964;7.982;2023-02-17T05:56:55;97621.91;;;9.76;59.57
47366;BME280;33105;47.964;7.982;2023-02-17T05:59:56;97639.09;;;9.65;60.09
47366;BME280;33105;47.964;7.982;2023-02-17T06:02:58;97636.94;;;9.55;60.88
47366;BME280;33105;47.964;7.982;2023-02-17T06:05:59;97638.94;;;9.48;62.05
47366;BME280;33105;47.964;7.982;2023-02-17T06:09:01;97643.38;;;9.61;62.03
47366;BME280;33105;47.964;7.982;2023-02-17T06:12:02;97637.31;;;9.59;62.56
47366;BME280;33105;47.964;7.982;2023-02-17T06:15:04;97645.59;;;9.52;62.42
47366;BME280;33105;47.964;7.982;2023-02-17T06:18:05;97641.25;;;9.63;61.69
47366;BME280;33105;47.964;7.982;2023-02-17T06:21:06;97645.50;;;9.59;62.10
47366;BME280;33105;47.964;7.982;2023-02-17T06:24:07;97645.88;;;9.63;62.59
47366;BME280;33105;47.964;7.982;2023-02-17T06:27:08;97650.63;;;9.79;61.72
47366;BME280;33105;47.964;7.982;2023-02-17T06:30:10;97661.91;;;9.82;61.66
47366;BME280;33105;47.964;7.982;2023-02-17T06:33:11;97665.22;;;9.73;61.94
47366;BME280;33105;47.964;7.982;2023-02-17T06:36:12;97667.72;;;9.74;62.67
47366;BME280;33105;47.964;7.982;2023-02-17T06:39:14;97683.69;;;9.59;63.23
47366;BME280;33105;47.964;7.982;2023-02-17T06:42:15;97677.13;;;9.48;63.56
47366;BME280;33105;47.964;7.982;2023-02-17T06:45:16;97679.31;;;9.58;64.83
47366;BME280;33105;47.964;7.982;2023-02-17T06:48:17;97682.81;;;9.47;64.75
47366;BME280;33105;47.964;7.982;2023-02-17T06:51:18;97698.88;;;9.67;64.96
47366;BME280;33105;47.964;7.982;2023-02-17T06:54:19;97671.75;;;9.42;65.90
47366;BME280;33105;47.964;7.982;2023-02-17T06:57:21;97682.59;;;9.48;65.76
47366;BME280;33105;47.964;7.982;2023-02-17T07:00:22;97688.34;;;9.29;67.99
47366;BME280;33105;47.964;7.982;2023-02-17T07:03:23;97696.44;;;9.47;66.80
47366;BME280;33105;47.964;7.982;2023-02-17T07:06:24;97684.56;;;9.41;68.34
47366;BME280;33105;47.964;7.982;2023-02-17T07:09:26;97698.41;;;9.28;68.95
47366;BME280;33105;47.964;7.982;2023-02-17T07:12:27;97705.28;;;9.31;69.82
47366;BME280;33105;47.964;7.982;2023-02-17T07:15:29;97708.03;;;9.31;69.83
47366;BME280;33105;47.964;7.982;2023-02-17T07:18:30;97703.72;;;9.23;69.71
47366;BME280;33105;47.964;7.982;2023-02-17T07:21:31;97713.78;;;9.23;69.62
47366;BME280;33105;47.964;7.982;2023-02-17T07:24:32;97714.09;;;9.44;69.96
47366;BME280;33105;47.964;7.982;2023-02-17T07:27:35;97714.03;;;9.51;69.06
47366;BME280;33105;47.964;7.982;2023-02-17T07:30:40;97717.69;;;9.15;70.26
47366;BME280;33105;47.964;7.982;2023-02-17T07:33:42;97718.13;;;9.42;69.94
47366;BME280;33105;47.964;7.982;2023-02-17T07:36:43;97718.09;;;9.30;69.75
47366;BME280;33105;47.964;7.982;2023-02-17T07:39:44;97722.63;;;9.36;69.66
47366;BME280;33105;47.964;7.982;2023-02-17T07:42:46;97714.69;;;9.35;69.40
47366;BME280;33105;47.964;7.982;2023-02-17T07:45:48;97721.16;;;9.52;68.96
47366;BME280;33105;47.964;7.982;2023-02-17T07:48:55;97725.84;;;9.45;69.72
47366;BME280;33105;47.964;7.982;2023-02-17T07:51:57;97722.91;;;9.46;69.22
47366;BME280;33105;47.964;7.982;2023-02-17T07:54:58;97723.72;;;9.47;69.82
47366;BME280;33105;47.964;7.982;2023-02-17T07:57:59;97730.94;;;9.41;70.33
47366;BME280;33105;47.964;7.982;2023-02-17T08:01:14;97728.94;;;9.48;69.98
47366;BME280;33105;47.964;7.982;2023-02-17T08:04:16;97725.69;;;9.58;69.97
47366;BME280;33105;47.964;7.982;2023-02-17T08:07:17;97722.91;;;9.46;70.16
47366;BME280;33105;47.964;7.982;2023-02-17T08:10:20;97718.13;;;9.42;70.95
47366;BME280;33105;47.964;7.982;2023-02-17T08:13:39;97732.13;;;9.45;71.14
47366;BME280;33105;47.964;7.982;2023-02-17T08:16:41;97725.47;;;9.41;71.08
47366;BME280;33105;47.964;7.982;2023-02-17T08:19:42;97732.88;;;9.52;70.61
47366;BME280;33105;47.964;7.982;2023-02-17T08:22:43;97734.00;;;9.63;70.71
47366;BME280;33105;47.964;7.982;2023-02-17T08:25:44;97733.06;;;9.69;70.39
47366;BME280;33105;47.964;7.982;2023-02-17T08:28:47;97750.22;;;9.58;70.68
47366;BME280;33105;47.964;7.982;2023-02-17T08:31:52;97758.13;;;9.78;70.90
47366;BME280;33105;47.964;7.982;2023-02-17T08:34:56;97754.88;;;9.69;71.25
47366;BME280;33105;47.964;7.982;2023-02-17T08:37:58;97752.44;;;9.79;70.89
47366;BME280;33105;47.964;7.982;2023-02-17T08:40:59;97751.16;;;9.82;70.58
47366;BME280;33105;47.964;7.982;2023-02-17T08:44:03;97749.66;;;9.68;71.33
47366;BME280;33105;47.964;7.982;2023-02-17T08:47:06;97748.88;;;9.79;70.73
47366;BME280;33105;47.964;7.982;2023-02-17T08:50:10;97749.72;;;9.79;71.04
47366;BME280;33105;47.964;7.982;2023-02-17T08:53:15;97747.59;;;9.81;71.39
47366;BME280;33105;47.964;7.982;2023-02-17T08:56:17;97749.56;;;9.74;71.81
47366;BME280;33105;47.964;7.982;2023-02-17T08:59:19;97759.97;;;9.66;72.54
47366;BME280;33105;47.964;7.982;2023-02-17T09:02:20;97770.34;;;9.75;71.82
47366;BME280;33105;47.964;7.982;2023-02-17T09:05:22;97774.50;;;9.78;72.25
47366;BME280;33105;47.964;7.982;2023-02-17T09:08:24;97777.31;;;9.71;72.77
47366;BME280;33105;47.964;7.982;2023-02-17T09:11:25;97785.63;;;9.65;73.48
47366;BME280;33105;47.964;7.982;2023-02-17T09:14:27;97789.97;;;9.66;73.96
47366;BME280;33105;47.964;7.982;2023-02-17T09:17:28;97796.16;;;9.61;74.22
47366;BME280;33105;47.964;7.982;2023-02-17T09:20:29;97800.16;;;9.59;73.65
47366;BME280;33105;47.964;7.982;2023-02-17T09:23:31;97805.28;;;9.67;73.76
47366;BME280;33105;47.964;7.982;2023-02-17T09:26:32;97795.56;;;9.89;74.15
47366;BME280;33105;47.964;7.982;2023-02-17T09:29:37;97793.00;;;9.76;74.42
47366;BME280;33105;47.964;7.982;2023-02-17T09:32:41;97798.91;;;9.73;75.50
47366;BME280;33105;47.964;7.982;2023-02-17T09:35:42;97805.78;;;9.64;74.72
47366;BME280;33105;47.964;7.982;2023-02-17T09:38:45;97797.19;;;9.90;74.84
47366;BME280;33105;47.964;7.982;2023-02-17T09:41:48;97790.63;;;9.49;75.17
47366;BME280;33105;47.964;7.982;2023-02-17T09:45:05;97792.97;;;9.46;75.59
47366;BME280;33105;47.964;7.982;2023-02-17T09:48:11;97795.81;;;9.39;75.70
47366;BME280;33105;47.964;7.982;2023-02-17T09:51:29;97803.16;;;9.39;75.82
47366;BME280;33105;47.964;7.982;2023-02-17T09:58:07;97802.22;;;9.63;76.09
47366;BME280;33105;47.964;7.982;2023-02-17T10:01:14;97794.94;;;9.57;75.38
47366;BME280;33105;47.964;7.982;2023-02-17T10:04:23;97794.38;;;9.67;75.85
47366;BME280;33105;47.964;7.982;2023-02-17T10:07:29;97800.03;;;9.83;75.48
47366;BME280;33105;47.964;7.982;2023-02-17T10:10:52;97792.00;;;9.59;76.28
47366;BME280;33105;47.964;7.982;2023-02-17T10:13:58;97807.72;;;9.75;76.28
47366;BME280;33105;47.964;7.982;2023-02-17T10:17:19;97797.91;;;9.55;76.64
47366;BME280;33105;47.964;7.982;2023-02-17T10:20:31;97805.78;;;9.64;76.59
47366;BME280;33105;47.964;7.982;2023-02-17T10:23:34;97796.41;;;9.71;76.11
47366;BME280;33105;47.964;7.982;2023-02-17T10:26:51;97805.41;;;9.60;76.56
47366;BME280;33105;47.964;7.982;2023-02-17T10:33:18;97803.16;;;9.69;75.65
47366;BME280;33105;47.964;7.982;2023-02-17T10:39:54;97806.81;;;9.93;75.60
47366;BME280;33105;47.964;7.982;2023-02-17T10:42:59;97805.66;;;10.00;75.20
47366;BME280;33105;47.964;7.982;2023-02-17T10:46:04;97815.66;;;10.06;74.83
47366;BME280;33105;47.964;7.982;2023-02-17T10:49:33;97817.56;;;10.17;74.33
47366;BME280;33105;47.964;7.982;2023-02-17T10:52:37;97809.19;;;9.89;75.49
47366;BME280;33105;47.964;7.982;2023-02-17T10:56:01;97811.19;;;9.82;75.46
47366;BME280;33105;47.964;7.982;2023-02-17T10:59:26;97797.38;;;10.07;74.47
47366;BME280;33105;47.964;7.982;2023-02-17T11:02:39;97795.66;;;9.94;74.43
47366;BME280;33105;47.964;7.982;2023-02-17T11:05:41;97810.19;;;10.06;75.54
47366;BME280;33105;47.964;7.982;2023-02-17T11:08:59;97796.03;;;9.98;75.91
47366;BME280;33105;47.964;7.982;2023-02-17T11:12:05;97802.00;;;10.06;76.34
47366;BME280;33105;47.964;7.982;2023-02-17T11:15:26;97799.81;;;10.27;75.70
47366;BME280;33105;47.964;7.982;2023-02-17T11:18:32;97793.00;;;10.17;74.04
47366;BME280;33105;47.964;7.982;2023-02-17T11:21:33;97791.31;;;10.58;74.03
47366;BME280;33105;47.964;7.982;2023-02-17T11:24:35;97794.22;;;10.21;74.87
47366;BME280;33105;47.964;7.982;2023-02-17T11:27:38;97789.50;;;10.29;76.00
47366;BME280;33105;47.964;7.982;2023-02-17T11:30:48;97784.41;;;10.67;74.02
47366;BME280;33105;47.964;7.982;2023-02-17T11:33:50;97800.09;;;10.37;74.06
47366;BME280;33105;47.964;7.982;2023-02-17T11:40:21;97786.41;;;9.95;75.57
47366;BME280;33105;47.964;7.982;2023-02-17T11:43:23;97783.09;;;10.46;75.49
47366;BME280;33105;47.964;7.982;2023-02-17T11:49:35;97775.88;;;10.52;74.29
47366;BME280;33105;47.964;7.982;2023-02-17T11:52:50;97782.03;;;10.47;74.48
47366;BME280;33105;47.964;7.982;2023-02-17T11:56:24;97778.28;;;10.18;74.35
47366;BME280;33105;47.964;7.982;2023-02-17T11:59:35;97781.47;;;10.15;75.76
47366;BME280;33105;47.964;7.982;2023-02-17T12:06:17;97776.00;;;10.04;75.98
47366;BME280;33105;47.964;7.982;2023-02-17T12:12:39;97764.69;;;10.42;75.09
47366;BME280;33105;47.964;7.982;2023-02-17T12:19:45;97771.34;;;10.46;74.62
47366;BME280;33105;47.964;7.982;2023-02-17T12:25:59;97772.19;;;10.46;74.80
47366;BME280;33105;47.964;7.982;2023-02-17T12:36:10;97767.78;;;10.69;73.71
47366;BME280;33105;47.964;7.982;2023-02-17T12:39:17;97767.91;;;10.50;74.38
47366;BME280;33105;47.964;7.982;2023-02-17T12:42:28;97760.06;;;10.66;74.90
47366;BME280;33105;47.964;7.982;2023-02-17T12:45:41;97769.00;;;10.84;74.29
47366;BME280;33105;47.964;7.982;2023-02-17T12:48:53;97752.09;;;10.87;72.92
47366;BME280;33105;47.964;7.982;2023-02-17T12:52:07;97763.28;;;10.74;74.55
47366;BME280;33105;47.964;7.982;2023-02-17T12:58:21;97754.47;;;10.96;74.13
47366;BME280;33105;47.964;7.982;2023-02-17T13:01:28;97742.72;;;10.83;73.82
47366;BME280;33105;47.964;7.982;2023-02-17T13:04:32;97751.13;;;10.94;74.61
47366;BME280;33105;47.964;7.982;2023-02-17T13:07:52;97743.78;;;10.82;74.50
47366;BME280;33105;47.964;7.982;2023-02-17T13:11:04;97743.28;;;11.09;74.17
47366;BME280;33105;47.964;7.982;2023-02-17T13:14:25;97749.69;;;11.03;74.22
47366;BME280;33105;47.964;7.982;2023-02-17T13:24:14;97738.28;;;11.06;74.95
47366;BME280;33105;47.964;7.982;2023-02-17T13:30:39;97730.34;;;10.81;74.06
47366;BME280;33105;47.964;7.982;2023-02-17T13:36:53;97740.53;;;10.97;73.53
47366;BME280;33105;47.964;7.982;2023-02-17T13:39:55;97739.81;;;11.13;72.83
47366;BME280;33105;47.964;7.982;2023-02-17T13:42:56;97732.81;;;10.94;72.61
47366;BME280;33105;47.964;7.982;2023-02-17T13:46:00;97726.91;;;10.74;73.38
47366;BME280;33105;47.964;7.982;2023-02-17T13:49:05;97730.19;;;11.11;74.01
47366;BME280;33105;47.964;7.982;2023-02-17T13:52:18;97719.78;;;10.73;73.83
47366;BME280;33105;47.964;7.982;2023-02-17T13:55:22;97723.09;;;10.86;73.75
47366;BME280;33105;47.964;7.982;2023-02-17T13:58:35;97724.84;;;11.04;74.23
47366;BME280;33105;47.964;7.982;2023-02-17T14:01:40;97720.38;;;10.86;74.54
47366;BME280;33105;47.964;7.982;2023-02-17T14:04:42;97724.97;;;10.98;73.69
47366;BME280;33105;47.964;7.982;2023-02-17T14:07:45;97727.00;;;10.90;73.30
47366;BME280;33105;47.964;7.982;2023-02-17T14:10:47;97726.16;;;11.13;73.25
47366;BME280;33105;47.964;7.982;2023-02-17T14:13:50;97725.81;;;10.98;72.77
47366;BME280;33105;47.964;7.982;2023-02-17T14:17:07;97724.78;;;10.87;74.16
47366;BME280;33105;47.964;7.982;2023-02-17T14:20:30;97725.09;;;11.03;74.00
47366;BME280;33105;47.964;7.982;2023-02-17T14:23:50;97729.44;;;11.15;73.31
47366;BME280;33105;47.964;7.982;2023-02-17T14:30:00;97720.97;;;11.29;73.78
47366;BME280;33105;47.964;7.982;2023-02-17T14:33:17;97733.22;;;11.38;72.02
47366;BME280;33105;47.964;7.982;2023-02-17T14:36:32;97737.03;;;11.25;72.97
47366;BME280;33105;47.964;7.982;2023-02-17T14:39:33;97734.34;;;11.13;72.96
47366;BME280;33105;47.964;7.982;2023-02-17T14:42:34;97744.47;;;11.01;73.99
47366;BME280;33105;47.964;7.982;2023-02-17T14:45:35;97744.34;;;11.08;72.99
47366;BME280;33105;47.964;7.982;2023-02-17T14:48:37;97743.63;;;11.01;73.14
47366;BME280;33105;47.964;7.982;2023-02-17T14:51:38;97743.28;;;11.09;73.34
47366;BME280;33105;47.964;7.982;2023-02-17T14:54:39;97748.75;;;11.09;73.86
47366;BME280;33105;47.964;7.982;2023-02-17T14:57:40;97755.41;;;11.01;72.79
47366;BME280;33105;47.964;7.982;2023-02-17T15:00:41;97747.31;;;10.95;73.04
47366;BME280;33105;47.964;7.982;2023-02-17T15:03:43;97748.59;;;11.15;74.22
47366;BME280;33105;47.964;7.982;2023-02-17T15:06:46;97745.53;;;11.00;73.16
47366;BME280;33105;47.964;7.982;2023-02-17T15:09:48;97741.72;;;11.01;73.71
47366;BME280;33105;47.964;7.982;2023-02-17T15:12:49;97744.53;;;11.18;73.41
47366;BME280;33105;47.964;7.982;2023-02-17T15:15:51;97737.41;;;11.17;72.79
47366;BME280;33105;47.964;7.982;2023-02-17T15:18:52;97729.63;;;11.37;72.53
47366;BME280;33105;47.964;7.982;2023-02-17T15:21:53;97714.00;;;11.49;71.74
47366;BME280;33105;47.964;7.982;2023-02-17T15:24:54;97717.53;;;11.33;72.56
47366;BME280;33105;47.964;7.982;2023-02-17T15:27:55;97716.63;;;11.73;71.63
47366;BME280;33105;47.964;7.982;2023-02-17T15:30:56;97712.44;;;11.53;71.30
47366;BME280;33105;47.964;7.982;2023-02-17T15:33:59;97710.19;;;11.79;71.87
47366;BME280;33105;47.964;7.982;2023-02-17T15:37:00;97709.38;;;11.95;70.63
47366;BME280;33105;47.964;7.982;2023-02-17T15:40:02;97698.69;;;11.65;71.50
47366;BME280;33105;47.964;7.982;2023-02-17T15:43:03;97700.19;;;11.73;71.49
47366;BME280;33105;47.964;7.982;2023-02-17T15:46:11;97701.06;;;11.90;71.51
47366;BME280;33105;47.964;7.982;2023-02-17T15:49:13;97696.38;;;11.74;71.17
47366;BME280;33105;47.964;7.982;2023-02-17T15:52:14;97690.19;;;11.78;71.47
47366;BME280;33105;47.964;7.982;2023-02-17T15:55:17;97683.53;;;11.74;70.93
47366;BME280;33105;47.964;7.982;2023-02-17T15:58:20;97686.06;;;11.64;71.32
47366;BME280;33105;47.964;7.982;2023-02-17T16:01:30;97678.69;;;11.65;72.09
47366;BME280;33105;47.964;7.982;2023-02-17T16:04:32;97677.09;;;11.52;71.72
47366;BME280;33105;47.964;7.982;2023-02-17T16:07:33;97680.09;;;11.67;72.07
47366;BME280;33105;47.964;7.982;2023-02-17T16:10:35;97685.50;;;11.62;72.86
47366;BME280;33105;47.964;7.982;2023-02-17T16:13:36;97685.91;;;11.71;73.00
47366;BME280;33105;47.964;7.982;2023-02-17T16:16:38;97692.09;;;11.49;72.28
47366;BME280;33105;47.964;7.982;2023-02-17T16:19:39;97692.22;;;11.71;73.52
47366;BME280;33105;47.964;7.982;2023-02-17T16:22:40;97689.72;;;11.70;72.96
47366;BME280;33105;47.964;7.982;2023-02-17T16:25:43;97695.09;;;11.48;72.99
47366;BME280;33105;47.964;7.982;2023-02-17T16:28:45;97704.75;;;11.67;73.11
47366;BME280;33105;47.964;7.982;2023-02-17T16:31:47;97703.31;;;11.65;73.19
47366;BME280;33105;47.964;7.982;2023-02-17T16:34:48;97702.66;;;11.57;73.90
47366;BME280;33105;47.964;7.982;2023-02-17T16:38:00;97705.41;;;11.17;75.59
47366;BME280;33105;47.964;7.982;2023-02-17T16:41:02;97699.94;;;11.29;75.25
47366;BME280;33105;47.964;7.982;2023-02-17T16:44:03;97702.53;;;11.36;74.43
47366;BME280;33105;47.964;7.982;2023-02-17T16:47:05;97697.44;;;11.28;75.38
47366;BME280;33105;47.964;7.982;2023-02-17T16:50:30;97686.59;;;11.33;73.99
47366;BME280;33105;47.964;7.982;2023-02-17T16:53:32;97690.66;;;11.30;74.43
47366;BME280;33105;47.964;7.982;2023-02-17T16:56:35;97690.44;;;10.80;76.29
47366;BME280;33105;47.964;7.982;2023-02-17T16:59:37;97699.91;;;10.89;75.11
47366;BME280;33105;47.964;7.982;2023-02-17T17:02:38;97704.22;;;11.25;74.62
47366;BME280;33105;47.964;7.982;2023-02-17T17:05:40;97703.47;;;10.89;75.03
47366;BME280;33105;47.964;7.982;2023-02-17T17:08:42;97713.56;;;11.01;74.94
47366;BME280;33105;47.964;7.982;2023-02-17T17:11:44;97717.59;;;11.10;75.06
47366;BME280;33105;47.964;7.982;2023-02-17T17:14:45;97719.75;;;10.96;75.16
47366;BME280;33105;47.964;7.982;2023-02-17T17:17:51;97724.84;;;11.04;74.50
47366;BME280;33105;47.964;7.982;2023-02-17T17:20:53;97737.94;;;11.02;74.66
47366;BME280;33105;47.964;7.982;2023-02-17T17:23:54;97728.38;;;11.16;74.76
47366;BME280;33105;47.964;7.982;2023-02-17T17:26:55;97722.56;;;11.13;75.52
47366;BME280;33105;47.964;7.982;2023-02-17T17:29:56;97723.91;;;10.99;75.87
47366;BME280;33105;47.964;7.982;2023-02-17T17:32:58;97730.88;;;11.18;75.35
47366;BME280;33105;47.964;7.982;2023-02-17T17:35:59;97734.66;;;11.17;75.10
47366;BME280;33105;47.964;7.982;2023-02-17T17:39:02;97741.19;;;11.28;74.69
47366;BME280;33105;47.964;7.982;2023-02-17T17:42:04;97750.72;;;11.25;75.37
47366;BME280;33105;47.964;7.982;2023-02-17T17:45:05;97738.78;;;10.79;76.82
47366;BME280;33105;47.964;7.982;2023-02-17T17:48:11;97750.88;;;11.07;76.06
47366;BME280;33105;47.964;7.982;2023-02-17T17:51:15;97759.75;;;11.14;76.32
47366;BME280;33105;47.964;7.982;2023-02-17T17:54:17;97764.09;;;11.10;76.50
47366;BME280;33105;47.964;7.982;2023-02-17T17:57:18;97752.06;;;11.11;77.10